Time;durP1;ratioP1;P1;durP2;ratioP2;P2;SDS_P1;SDS_P2;PMS_P1;PMS_P2;Temp;Humidity;BMP_temperature;BMP_pressure;BME280_temperature;BME280_humidity;BME280_pressure;Samples;Min_cycle;Max_cycle;Signal;HPM_P1;HPM_P2
2021/06/12 00:00:40;;;;;;;11.00;10.00;;;17.60;99.90;;;;;;6224504;28;20393;-80
2021/06/12 00:03:42;;;;;;;10.40;8.40;;;17.60;99.90;;;;;;6226107;28;20507;-79
2021/06/12 00:06:44;;;;;;;10.07;9.18;;;17.60;99.90;;;;;;6225668;28;20530;-80
2021/06/12 00:09:45;;;;;;;11.20;10.30;;;17.50;99.90;;;;;;6225562;28;20555;-80
2021/06/12 00:12:47;;;;;;;10.13;9.27;;;17.60;99.90;;;;;;6225610;28;20108;-80
2021/06/12 00:15:51;;;;;;;11.10;9.38;;;17.60;99.90;;;;;;6226108;28;20496;-79
2021/06/12 00:18:53;;;;;;;12.88;10.07;;;17.60;99.90;;;;;;6225576;28;20131;-79
2021/06/12 00:21:55;;;;;;;10.25;9.25;;;17.60;99.90;;;;;;6226457;28;20049;-80
2021/06/12 00:24:56;;;;;;;9.50;8.55;;;17.70;99.90;;;;;;6224578;28;20046;-79
2021/06/12 00:27:59;;;;;;;10.82;9.93;;;17.70;99.90;;;;;;6225358;28;20061;-80
2021/06/12 00:31:00;;;;;;;9.52;8.57;;;17.80;99.90;;;;;;6225176;28;20065;-79
2021/06/12 00:34:03;;;;;;;10.20;9.30;;;17.80;99.90;;;;;;6226420;28;20077;-79
2021/06/12 00:37:05;;;;;;;9.65;8.75;;;17.80;99.90;;;;;;6228024;28;20076;-80
2021/06/12 00:40:08;;;;;;;12.65;8.90;;;17.70;99.90;;;;;;6229164;28;20088;-79
2021/06/12 00:43:09;;;;;;;9.95;9.25;;;17.70;99.90;;;;;;6228626;28;20507;-79
2021/06/12 00:46:11;;;;;;;12.65;9.00;;;17.70;99.90;;;;;;6230169;28;20141;-80
2021/06/12 00:49:14;;;;;;;9.68;8.77;;;17.70;99.90;;;;;;6229753;28;20104;-80
2021/06/12 00:52:15;;;;;;;9.40;8.50;;;17.60;99.90;;;;;;6229577;28;20049;-78
2021/06/12 00:55:18;;;;;;;10.85;8.95;;;17.70;99.90;;;;;;6229732;28;20056;-80
2021/06/12 00:58:20;;;;;;;9.00;8.10;;;17.70;99.90;;;;;;6229945;28;20103;-80
2021/06/12 01:01:22;;;;;;;11.27;9.95;;;17.70;99.90;;;;;;6228779;28;20083;-79
2021/06/12 01:04:25;;;;;;;10.40;9.48;;;17.70;99.90;;;;;;6228486;28;20546;-79
2021/06/12 01:07:26;;;;;;;12.13;9.15;;;17.90;99.90;;;;;;6228688;28;20105;-78
2021/06/12 01:10:28;;;;;;;10.25;9.25;;;17.90;99.90;;;;;;6229206;28;20068;-79
2021/06/12 01:13:34;;;;;;;10.32;9.35;;;18.00;99.90;;;;;;6228631;28;20128;-77
2021/06/12 01:16:43;;;;;;;11.02;9.85;;;18.10;99.90;;;;;;6228213;28;20070;-79
2021/06/12 01:20:09;;;;;;;10.45;9.10;;;18.00;99.90;;;;;;6228317;28;20120;-78
2021/06/12 01:23:53;;;;;;;10.57;9.68;;;18.00;99.90;;;;;;6228698;28;20120;-79
2021/06/12 01:27:21;;;;;;;10.50;9.60;;;18.00;99.90;;;;;;6228411;28;20060;-77
2021/06/12 01:30:25;;;;;;;11.10;10.10;;;18.00;99.90;;;;;;6228435;28;20480;-78
2021/06/12 01:33:27;;;;;;;11.15;10.25;;;17.90;99.90;;;;;;6228626;28;20145;-81
2021/06/12 01:36:29;;;;;;;10.52;9.50;;;17.90;99.90;;;;;;6228118;28;20515;-79
2021/06/12 01:39:32;;;;;;;12.95;10.35;;;17.80;99.90;;;;;;6228081;28;20081;-79
2021/06/12 01:42:35;;;;;;;12.55;11.45;;;17.80;99.90;;;;;;6228558;28;20124;-77
2021/06/12 01:45:41;;;;;;;14.85;11.30;;;17.70;99.90;;;;;;6228177;28;20052;-79
2021/06/12 01:48:44;;;;;;;10.40;9.40;;;17.60;99.90;;;;;;6227830;28;20076;-78
2021/06/12 01:51:46;;;;;;;11.70;10.68;;;17.60;99.90;;;;;;6227376;28;20478;-79
2021/06/12 01:54:49;;;;;;;11.90;10.80;;;17.50;99.90;;;;;;6228057;28;20078;-79
2021/06/12 01:57:51;;;;;;;11.25;10.15;;;17.40;99.90;;;;;;6228754;28;20132;-78
2021/06/12 02:00:55;;;;;;;12.82;11.38;;;17.40;99.90;;;;;;6228163;28;20116;-78
2021/06/12 02:03:58;;;;;;;13.85;10.88;;;17.30;99.90;;;;;;6227508;28;20127;-79
2021/06/12 02:07:02;;;;;;;10.70;9.70;;;17.20;99.90;;;;;;6228344;28;20077;-78
2021/06/12 02:10:05;;;;;;;12.02;10.85;;;17.20;99.90;;;;;;6228145;28;20054;-79
2021/06/12 02:13:08;;;;;;;10.77;9.68;;;17.20;99.90;;;;;;6226670;28;20045;-79
2021/06/12 02:16:11;;;;;;;12.32;11.20;;;17.30;99.90;;;;;;6229601;28;20109;-79
2021/06/12 02:19:13;;;;;;;14.90;10.13;;;17.40;99.90;;;;;;6229665;28;20172;-80
2021/06/12 02:22:15;;;;;;;11.80;9.98;;;17.30;99.90;;;;;;6233624;28;20079;-78
2021/06/12 02:25:18;;;;;;;13.57;12.00;;;17.20;99.90;;;;;;6233213;28;20485;-80
2021/06/12 02:28:21;;;;;;;14.68;13.05;;;17.20;99.90;;;;;;6234730;28;20046;-79
2021/06/12 02:31:26;;;;;;;13.13;11.82;;;17.10;99.90;;;;;;6232011;28;20074;-80
2021/06/12 02:34:27;;;;;;;11.85;10.32;;;17.00;99.90;;;;;;6233149;28;20105;-79
2021/06/12 02:37:29;;;;;;;12.27;11.32;;;17.00;99.90;;;;;;6233464;28;20050;-80
2021/06/12 02:40:31;;;;;;;13.23;11.90;;;17.00;99.90;;;;;;6233346;28;20542;-80
2021/06/12 02:43:32;;;;;;;11.82;10.27;;;17.10;99.90;;;;;;6228004;28;20499;-79
2021/06/12 02:46:40;;;;;;;13.57;12.30;;;17.10;99.90;;;;;;6231011;28;20056;-79
2021/06/12 02:49:43;;;;;;;12.50;11.10;;;17.20;99.90;;;;;;6230428;28;20125;-79
2021/06/12 02:52:45;;;;;;;12.57;11.48;;;17.20;99.90;;;;;;6229328;28;20077;-80
2021/06/12 02:55:50;;;;;;;11.35;10.35;;;17.20;99.90;;;;;;6229404;28;20148;-80
2021/06/12 02:58:56;;;;;;;12.68;11.48;;;17.20;99.90;;;;;;6229672;28;20054;-79
2021/06/12 03:02:00;;;;;;;11.23;10.13;;;17.10;99.90;;;;;;6230289;28;20073;-79
2021/06/12 03:05:03;;;;;;;12.25;10.95;;;16.90;99.90;;;;;;6229874;28;20132;-79
2021/06/12 03:08:06;;;;;;;12.27;11.25;;;16.90;99.90;;;;;;6229050;28;20080;-79
2021/06/12 03:11:09;;;;;;;11.98;10.90;;;16.80;99.90;;;;;;6229846;28;20104;-78
2021/06/12 03:14:13;;;;;;;11.80;10.70;;;16.70;99.90;;;;;;6229158;28;20109;-78
2021/06/12 03:17:17;;;;;;;13.32;12.05;;;16.70;99.90;;;;;;6228456;28;20073;-78
2021/06/12 03:20:19;;;;;;;10.98;10.05;;;16.70;99.90;;;;;;6228070;28;20129;-79
2021/06/12 03:23:21;;;;;;;12.50;10.70;;;16.70;99.90;;;;;;6227203;28;20149;-79
2021/06/12 03:26:24;;;;;;;13.23;12.07;;;16.80;99.90;;;;;;6227571;28;20136;-79
2021/06/12 03:29:25;;;;;;;12.60;11.50;;;16.70;99.90;;;;;;6227597;28;20050;-79
2021/06/12 03:32:28;;;;;;;12.55;11.35;;;16.70;99.90;;;;;;6226542;28;20551;-79
2021/06/12 03:35:32;;;;;;;11.80;10.80;;;16.70;99.90;;;;;;6227902;28;20069;-78
2021/06/12 03:38:35;;;;;;;12.60;11.60;;;16.70;99.90;;;;;;6227029;28;20082;-78
2021/06/12 03:41:36;;;;;;;14.82;12.18;;;16.70;99.90;;;;;;6227357;28;20053;-77
2021/06/12 03:44:39;;;;;;;17.50;12.48;;;16.70;99.90;;;;;;6229914;28;20050;-79
2021/06/12 03:47:42;;;;;;;11.43;10.30;;;16.70;99.90;;;;;;6229590;28;20163;-79
2021/06/12 03:50:44;;;;;;;13.65;12.05;;;16.70;99.90;;;;;;6227345;28;20137;-80
2021/06/12 03:53:47;;;;;;;11.57;10.52;;;16.70;99.90;;;;;;6227630;28;20475;-79
2021/06/12 03:56:48;;;;;;;12.27;11.07;;;16.80;99.90;;;;;;6227137;28;20050;-79
2021/06/12 03:59:50;;;;;;;12.82;11.60;;;16.80;99.90;;;;;;6225316;28;20080;-78
2021/06/12 04:02:53;;;;;;;16.20;11.70;;;16.90;99.90;;;;;;6227531;28;20069;-79
2021/06/12 04:05:54;;;;;;;12.15;11.05;;;17.00;99.90;;;;;;6246138;28;20057;-77
2021/06/12 04:08:55;;;;;;;11.80;10.27;;;17.10;99.90;;;;;;6254246;28;20041;-78
2021/06/12 04:11:56;;;;;;;10.70;9.70;;;17.30;99.90;;;;;;6256561;28;20054;-78
2021/06/12 04:14:58;;;;;;;10.18;8.82;;;17.50;99.90;;;;;;6258944;28;20030;-77
2021/06/12 04:18:07;;;;;;;13.63;9.30;;;17.70;99.90;;;;;;6259497;28;20034;-78
2021/06/12 04:21:09;;;;;;;10.07;9.18;;;17.90;99.90;;;;;;6258943;28;20046;-78
2021/06/12 04:24:10;;;;;;;11.00;8.90;;;18.10;99.90;;;;;;6258867;28;20064;-78
2021/06/12 04:27:11;;;;;;;9.80;8.93;;;18.30;99.90;;;;;;6258521;28;20054;-78
2021/06/12 04:30:15;;;;;;;10.70;9.15;;;18.50;99.90;;;;;;6258405;28;20046;-78
2021/06/12 04:33:18;;;;;;;11.10;8.80;;;18.70;99.90;;;;;;6258029;28;20033;-78
2021/06/12 04:36:19;;;;;;;12.75;8.93;;;18.80;99.40;;;;;;6247859;28;20058;-77
2021/06/12 04:39:22;;;;;;;7.10;6.50;;;19.00;98.80;;;;;;6227838;28;20037;-78
2021/06/12 04:42:23;;;;;;;9.13;7.95;;;19.10;98.40;;;;;;6228110;28;20136;-77
2021/06/12 04:45:25;;;;;;;7.85;7.25;;;19.30;97.90;;;;;;6227427;28;20041;-77
2021/06/12 04:48:27;;;;;;;7.65;7.05;;;19.40;97.40;;;;;;6226841;28;20128;-77
2021/06/12 04:51:29;;;;;;;7.28;6.68;;;19.60;97.00;;;;;;6227118;28;20129;-78
2021/06/12 04:54:30;;;;;;;8.80;7.90;;;19.70;96.50;;;;;;6226987;28;20073;-78
2021/06/12 04:57:32;;;;;;;7.82;7.03;;;19.90;96.00;;;;;;6226547;28;20069;-78
2021/06/12 05:00:33;;;;;;;8.15;6.95;;;20.00;95.60;;;;;;6226887;28;20053;-78
2021/06/12 05:03:37;;;;;;;6.82;6.22;;;20.10;95.30;;;;;;6226928;28;20125;-78
2021/06/12 05:06:38;;;;;;;7.63;6.90;;;20.30;94.90;;;;;;6227953;28;20081;-79
2021/06/12 05:09:39;;;;;;;6.53;5.93;;;20.30;94.70;;;;;;6227134;28;20096;-79
2021/06/12 05:12:41;;;;;;;8.27;5.90;;;20.40;94.60;;;;;;6226032;28;20120;-78
2021/06/12 05:15:42;;;;;;;7.82;7.10;;;20.40;94.20;;;;;;6227182;28;20121;-78
2021/06/12 05:18:45;;;;;;;7.10;6.50;;;20.50;93.90;;;;;;6227225;28;20467;-79
2021/06/12 05:21:47;;;;;;;6.50;6.00;;;20.50;94.00;;;;;;6226461;28;20053;-79
2021/06/12 05:24:48;;;;;;;8.20;7.35;;;20.70;93.60;;;;;;6226100;28;20125;-78
2021/06/12 05:27:50;;;;;;;5.80;5.20;;;20.80;93.30;;;;;;6227139;28;20176;-79
2021/06/12 05:30:51;;;;;;;7.35;5.75;;;20.90;93.00;;;;;;6226518;28;20133;-78
2021/06/12 05:33:54;;;;;;;5.85;5.35;;;21.00;92.70;;;;;;6217044;28;20096;-78
2021/06/12 05:36:56;;;;;;;5.75;5.32;;;21.00;92.40;;;;;;6224267;28;20496;-78
2021/06/12 05:39:57;;;;;;;7.90;6.07;;;21.10;91.90;;;;;;6226177;28;20583;-79
2021/06/12 05:42:58;;;;;;;7.20;5.90;;;21.20;91.70;;;;;;6226811;28;20157;-77
2021/06/12 05:46:00;;;;;;;5.88;5.15;;;21.50;91.90;;;;;;6226520;28;20077;-79
2021/06/12 05:49:02;;;;;;;7.13;5.45;;;21.70;91.20;;;;;;6226130;28;20476;-80
2021/06/12 05:52:05;;;;;;;6.05;5.40;;;21.90;90.70;;;;;;6226046;28;20068;-80
2021/06/12 05:55:07;;;;;;;6.03;4.53;;;22.20;90.10;;;;;;6225960;28;20183;-80
2021/06/12 05:58:08;;;;;;;4.78;4.38;;;22.40;88.80;;;;;;6226689;28;20053;-79
2021/06/12 06:01:11;;;;;;;6.70;5.22;;;22.50;87.70;;;;;;6226808;28;20046;-80
2021/06/12 06:04:14;;;;;;;6.22;5.53;;;22.60;87.10;;;;;;6219849;28;20054;-79
2021/06/12 06:07:17;;;;;;;6.18;5.38;;;23.00;85.50;;;;;;6225723;28;20111;-78
2021/06/12 06:10:19;;;;;;;7.20;4.55;;;23.50;83.50;;;;;;6226117;28;20058;-79
2021/06/12 06:13:20;;;;;;;6.68;4.93;;;24.10;80.30;;;;;;6225415;28;20408;-77
2021/06/12 06:16:21;;;;;;;7.75;5.57;;;24.60;78.20;;;;;;6226054;28;20128;-78
2021/06/12 06:19:24;;;;;;;5.18;4.45;;;24.90;75.80;;;;;;6226365;28;20074;-79
2021/06/12 06:22:25;;;;;;;8.00;4.82;;;25.20;74.10;;;;;;6226862;28;20081;-78
2021/06/12 06:25:27;;;;;;;5.10;4.60;;;25.50;72.90;;;;;;6226239;28;20069;-78
2021/06/12 06:28:28;;;;;;;6.22;4.53;;;25.10;73.00;;;;;;6225628;28;20456;-79
2021/06/12 06:31:30;;;;;;;5.32;4.50;;;24.80;73.70;;;;;;6225525;28;20128;-78
2021/06/12 06:34:32;;;;;;;3.90;3.60;;;24.60;74.60;;;;;;6226074;28;20057;-78
2021/06/12 06:37:34;;;;;;;4.28;3.90;;;24.40;74.60;;;;;;6227803;28;20475;-79
2021/06/12 06:40:35;;;;;;;12.70;11.43;;;24.20;75.20;;;;;;6229852;28;20135;-78
2021/06/12 06:43:37;;;;;;;7.88;3.63;;;24.10;75.30;;;;;;6230175;28;20096;-79
2021/06/12 06:46:38;;;;;;;4.72;3.80;;;24.00;75.60;;;;;;6228267;28;20049;-76
2021/06/12 06:49:41;;;;;;;4.00;3.60;;;24.00;75.80;;;;;;6227204;28;20056;-77
2021/06/12 06:52:42;;;;;;;5.97;4.07;;;23.90;75.30;;;;;;6227314;28;20062;-78
2021/06/12 06:55:43;;;;;;;4.63;4.22;;;23.90;75.60;;;;;;6229445;28;20077;-78
2021/06/12 06:58:44;;;;;;;4.53;4.13;;;23.80;76.40;;;;;;6226652;28;20089;-79
2021/06/12 07:01:46;;;;;;;9.77;5.22;;;23.80;75.80;;;;;;6226712;28;20054;-79
2021/06/12 07:04:48;;;;;;;4.30;3.92;;;23.70;75.70;;;;;;6226889;28;20045;-79
2021/06/12 07:07:50;;;;;;;5.05;4.03;;;23.80;76.40;;;;;;6226596;28;20148;-78
2021/06/12 07:10:51;;;;;;;8.60;4.75;;;23.70;76.60;;;;;;6225826;28;20462;-80
2021/06/12 07:13:53;;;;;;;7.40;5.82;;;23.70;76.90;;;;;;6227460;28;20190;-79
2021/06/12 07:16:54;;;;;;;6.70;6.10;;;23.70;76.40;;;;;;6226864;28;20069;-80
2021/06/12 07:19:57;;;;;;;7.28;6.60;;;24.00;75.80;;;;;;6227862;28;20065;-79
2021/06/12 07:22:58;;;;;;;7.47;6.78;;;24.40;74.60;;;;;;6227274;28;20113;-79
2021/06/12 07:26:00;;;;;;;7.20;6.07;;;24.50;73.80;;;;;;6226115;28;20060;-79
2021/06/12 07:29:01;;;;;;;8.75;7.50;;;24.70;74.00;;;;;;6224974;28;20042;-79
2021/06/12 07:32:02;;;;;;;6.40;5.50;;;24.80;72.80;;;;;;6224984;28;20069;-77
2021/06/12 07:35:06;;;;;;;9.48;5.30;;;24.80;72.50;;;;;;6225675;28;20073;-77
2021/06/12 07:38:08;;;;;;;8.23;7.43;;;24.80;72.70;;;;;;6212660;28;20133;-78
2021/06/12 07:41:10;;;;;;;5.90;5.30;;;24.90;72.60;;;;;;6200289;28;20109;-76
2021/06/12 07:44:11;;;;;;;6.10;5.28;;;25.10;72.60;;;;;;6211405;28;20074;-78
2021/06/12 07:47:12;;;;;;;7.13;6.07;;;25.20;72.30;;;;;;6224730;28;20461;-77
2021/06/12 07:50:16;;;;;;;5.18;4.68;;;25.40;71.50;;;;;;6224516;28;20077;-78
2021/06/12 07:53:17;;;;;;;5.25;4.65;;;25.30;71.70;;;;;;6224613;28;20614;-77
2021/06/12 07:56:18;;;;;;;4.03;3.45;;;25.30;71.90;;;;;;6225137;28;20168;-76
2021/06/12 07:59:20;;;;;;;6.72;2.83;;;25.40;71.80;;;;;;6225071;28;20125;-77
2021/06/12 08:02:21;;;;;;;4.63;2.63;;;25.40;71.80;;;;;;6225698;28;20108;-78
2021/06/12 08:05:24;;;;;;;4.25;3.85;;;25.60;70.50;;;;;;6224653;28;20124;-78
2021/06/12 08:08:25;;;;;;;8.30;2.38;;;25.80;70.60;;;;;;6224687;28;20046;-78
2021/06/12 08:11:27;;;;;;;5.40;2.08;;;26.00;70.10;;;;;;6224282;28;20089;-78
2021/06/12 08:14:28;;;;;;;2.35;2.15;;;26.10;68.80;;;;;;6225090;28;20133;-78
2021/06/12 08:17:30;;;;;;;3.25;2.78;;;;;;;;;;6224442;28;20561;-79
2021/06/12 08:20:33;;;;;;;2.53;2.20;;;26.00;67.80;;;;;;6224886;28;20054;-79
2021/06/12 08:23:37;;;;;;;9.60;3.25;;;26.00;68.20;;;;;;6224393;28;20492;-77
2021/06/12 08:26:38;;;;;;;3.40;2.92;;;26.00;68.20;;;;;;6225429;28;20062;-79
2021/06/12 08:29:39;;;;;;;4.25;2.95;;;26.10;67.60;;;;;;6224279;28;20523;-79
2021/06/12 08:32:41;;;;;;;4.40;3.38;;;26.10;68.00;;;;;;6224952;28;20077;-78
2021/06/12 08:35:43;;;;;;;4.07;2.95;;;26.10;67.60;;;;;;6225484;28;20129;-78
2021/06/12 08:38:45;;;;;;;3.97;2.45;;;26.20;68.10;;;;;;6218023;28;20046;-78
2021/06/12 08:41:46;;;;;;;3.33;3.03;;;26.30;68.70;;;;;;6229310;28;20091;-77
2021/06/12 08:44:49;;;;;;;4.15;2.63;;;26.50;67.50;;;;;;6227000;28;20137;-79
2021/06/12 08:47:50;;;;;;;3.92;3.40;;;26.80;67.30;;;;;;6227190;28;20050;-76
2021/06/12 08:50:53;;;;;;;4.82;3.05;;;27.10;65.50;;;;;;6228167;28;20128;-77
2021/06/12 08:53:55;;;;;;;3.72;2.72;;;;;;;;;;6227717;28;20132;-77
2021/06/12 08:56:56;;;;;;;3.17;2.60;;;27.70;62.70;;;;;;6226368;28;20133;-78
2021/06/12 08:59:58;;;;;;;6.13;2.65;;;27.50;63.50;;;;;;6230959;28;20081;-78
2021/06/12 09:03:11;;;;;;;7.22;2.35;;;27.30;63.60;;;;;;6231118;28;20144;-78
2021/06/12 09:06:18;;;;;;;4.57;3.03;;;27.00;64.10;;;;;;6231428;28;20056;-77
2021/06/12 09:09:39;;;;;;;4.57;2.50;;;26.90;63.70;;;;;;6230108;28;20096;-78
2021/06/12 09:12:49;;;;;;;3.15;2.75;;;26.80;64.10;;;;;;6229917;28;20368;-79
2021/06/12 09:15:55;;;;;;;9.88;3.75;;;26.90;65.50;;;;;;6229308;28;20072;-78
2021/06/12 09:18:58;;;;;;;2.85;2.33;;;27.10;64.90;;;;;;6228696;28;20420;-78
2021/06/12 09:22:01;;;;;;;3.22;2.58;;;27.40;63.90;;;;;;6231177;28;20140;-79
2021/06/12 09:25:03;;;;;;;3.67;2.40;;;27.60;63.20;;;;;;6229514;28;20111;-78
2021/06/12 09:28:04;;;;;;;2.95;2.45;;;27.80;63.10;;;;;;6229739;28;20486;-79
2021/06/12 09:31:17;;;;;;;3.67;2.22;;;27.80;62.80;;;;;;6229454;28;20061;-78
2021/06/12 09:34:22;;;;;;;4.45;3.03;;;27.90;61.90;;;;;;6229192;28;20052;-78
2021/06/12 09:37:28;;;;;;;5.35;2.45;;;27.80;63.00;;;;;;6229810;28;20045;-79
2021/06/12 09:40:32;;;;;;;5.97;2.85;;;27.80;62.30;;;;;;6228551;28;20123;-78
2021/06/12 09:43:33;;;;;;;5.10;2.25;;;28.10;62.40;;;;;;6229394;28;20092;-77
2021/06/12 09:46:38;;;;;;;3.50;2.42;;;28.20;61.80;;;;;;6230221;28;20073;-79
2021/06/12 09:49:40;;;;;;;4.60;2.58;;;28.20;60.50;;;;;;6229604;28;20078;-79
2021/06/12 09:52:45;;;;;;;4.00;2.42;;;28.30;61.60;;;;;;6229335;28;20045;-78
2021/06/12 09:55:47;;;;;;;4.78;2.60;;;28.60;60.30;;;;;;6228697;28;20125;-79
2021/06/12 09:58:49;;;;;;;6.50;3.05;;;28.90;59.70;;;;;;6229765;28;20520;-78
2021/06/12 10:01:51;;;;;;;3.45;2.25;;;29.20;58.10;;;;;;6233720;28;20049;-79
2021/06/12 10:04:56;;;;;;;4.60;2.63;;;28.90;58.90;;;;;;6230991;28;20554;-79
2021/06/12 10:08:01;;;;;;;4.25;2.17;;;28.90;58.70;;;;;;6231488;28;20046;-79
2021/06/12 10:11:03;;;;;;;8.20;2.90;;;29.00;59.40;;;;;;6229931;28;20045;-79
2021/06/12 10:14:06;;;;;;;6.60;2.88;;;29.20;58.90;;;;;;6230816;28;20492;-80
2021/06/12 10:17:08;;;;;;;24.83;5.65;;;29.50;56.60;;;;;;6229679;28;20511;-80
2021/06/12 10:20:11;;;;;;;11.50;2.90;;;29.70;56.00;;;;;;6229540;28;20157;-80
2021/06/12 10:23:14;;;;;;;5.20;2.30;;;29.90;56.30;;;;;;6229122;28;20100;-79
2021/06/12 10:26:18;;;;;;;4.72;2.20;;;29.80;56.10;;;;;;6229546;28;20073;-79
2021/06/12 10:29:19;;;;;;;4.22;3.55;;;29.60;56.20;;;;;;6229203;28;20081;-78
2021/06/12 10:32:21;;;;;;;3.50;2.42;;;29.60;56.30;;;;;;6228847;28;20129;-79
2021/06/12 10:35:26;;;;;;;4.68;2.88;;;29.70;55.90;;;;;;6228643;28;20579;-79
2021/06/12 10:38:31;;;;;;;13.85;2.15;;;29.80;56.00;;;;;;6228156;28;20459;-80
2021/06/12 10:41:34;;;;;;;3.75;2.92;;;29.70;56.60;;;;;;6228560;28;20085;-80
2021/06/12 10:44:36;;;;;;;6.82;3.72;;;29.90;56.10;;;;;;6229799;28;20065;-78
2021/06/12 10:47:39;;;;;;;6.97;1.92;;;30.20;54.80;;;;;;6230435;28;20057;-78
2021/06/12 10:50:45;;;;;;;6.03;2.83;;;30.40;53.20;;;;;;6227927;28;20077;-78
2021/06/12 10:54:19;;;;;;;4.25;1.98;;;30.50;52.50;;;;;;6231030;28;20042;-77
2021/06/12 10:57:20;;;;;;;1.63;1.13;;;30.70;51.10;;;;;;6229694;28;20054;-78
2021/06/12 11:00:24;;;;;;;3.03;1.83;;;30.90;48.80;;;;;;6229165;28;20107;-78
2021/06/12 11:03:49;;;;;;;4.35;2.05;;;31.00;48.70;;;;;;6228972;28;20567;-78
2021/06/12 11:06:54;;;;;;;7.65;1.77;;;31.30;48.30;;;;;;6229369;28;20133;-78
2021/06/12 11:10:25;;;;;;;2.78;1.60;;;31.40;48.00;;;;;;6228641;28;20523;-77
2021/06/12 11:13:27;;;;;;;4.50;1.83;;;31.40;47.30;;;;;;6227434;28;20073;-78
2021/06/12 11:16:28;;;;;;;3.17;1.35;;;31.50;46.80;;;;;;6228498;28;20184;-78
2021/06/12 11:19:30;;;;;;;2.25;1.67;;;31.60;47.10;;;;;;6228042;28;20113;-78
2021/06/12 11:22:35;;;;;;;1.38;1.27;;;31.60;47.50;;;;;;6229784;28;20204;-79
2021/06/12 11:25:59;;;;;;;5.72;1.23;;;31.20;48.40;;;;;;6227741;28;20065;-77
2021/06/12 11:29:11;;;;;;;3.47;1.60;;;31.10;47.70;;;;;;6228278;28;20050;-77
2021/06/12 11:32:27;;;;;;;1.77;1.30;;;31.10;48.00;;;;;;6228475;28;20194;-77
2021/06/12 11:35:47;;;;;;;12.30;2.13;;;31.10;47.90;;;;;;6229000;28;20236;-78
2021/06/12 11:38:58;;;;;;;3.97;1.42;;;30.80;48.70;;;;;;6226783;28;20123;-78
2021/06/12 11:42:01;;;;;;;4.63;1.55;;;30.70;49.00;;;;;;6211813;28;20508;-77
2021/06/12 11:45:16;;;;;;;1.70;1.30;;;30.60;48.80;;;;;;6226351;28;20042;-78
2021/06/12 11:48:19;;;;;;;3.00;1.60;;;30.80;48.60;;;;;;6226185;28;20073;-78
2021/06/12 11:51:25;;;;;;;3.65;2.75;;;31.00;48.10;;;;;;6226132;28;20046;-78
2021/06/12 11:54:29;;;;;;;6.07;1.35;;;31.10;48.90;;;;;;6228128;28;20057;-78
2021/06/12 11:57:41;;;;;;;11.23;3.58;;;31.20;48.10;;;;;;6227850;28;20073;-79
2021/06/12 12:00:46;;;;;;;9.38;2.38;;;31.50;48.10;;;;;;6227732;28;20050;-79
2021/06/12 12:03:47;;;;;;;6.97;1.83;;;31.60;47.20;;;;;;6227098;28;20065;-79
2021/06/12 12:06:50;;;;;;;3.50;1.33;;;31.70;46.30;;;;;;6225272;28;20057;-78
2021/06/12 12:09:54;;;;;;;2.95;1.30;;;31.90;45.60;;;;;;6223850;28;20187;-78
2021/06/12 12:12:57;;;;;;;1.95;1.77;;;31.90;45.60;;;;;;6223361;28;20085;-77
2021/06/12 12:15:58;;;;;;;2.05;0.98;;;31.70;46.10;;;;;;6222306;28;20050;-78
2021/06/12 12:19:01;;;;;;;3.20;1.58;;;31.40;45.90;;;;;;6225304;28;20081;-78
2021/06/12 12:22:04;;;;;;;4.25;1.35;;;31.20;46.60;;;;;;6226896;28;20117;-79
2021/06/12 12:25:07;;;;;;;1.30;1.20;;;31.00;46.50;;;;;;6226503;28;20077;-78
2021/06/12 12:28:13;;;;;;;1.33;0.90;;;31.00;46.10;;;;;;6227580;28;20049;-77
2021/06/12 12:31:15;;;;;;;1.55;1.15;;;31.10;44.90;;;;;;6224902;28;20138;-79
2021/06/12 12:34:31;;;;;;;5.40;1.30;;;31.10;44.50;;;;;;6229001;28;20046;-78
2021/06/12 12:37:32;;;;;;;2.47;0.90;;;31.10;44.20;;;;;;6228214;28;20057;-77
2021/06/12 12:40:33;;;;;;;0.90;0.80;;;31.10;44.10;;;;;;6227268;28;20698;-79
2021/06/12 12:43:36;;;;;;;1.10;0.80;;;31.10;43.90;;;;;;6225448;28;20065;-77
2021/06/12 12:46:39;;;;;;;1.95;0.98;;;31.10;44.40;;;;;;6230629;28;20141;-78
2021/06/12 12:49:42;;;;;;;3.13;0.85;;;31.30;44.50;;;;;;6228554;28;20515;-78
2021/06/12 12:52:43;;;;;;;0.70;0.70;;;31.60;43.80;;;;;;6228326;28;20135;-78
2021/06/12 12:55:55;;;;;;;3.33;3.03;;;31.60;43.40;;;;;;6228975;28;20153;-78
2021/06/12 12:58:58;;;;;;;3.45;0.80;;;31.80;43.80;;;;;;6228248;28;20046;-78
2021/06/12 13:02:01;;;;;;;0.80;0.60;;;31.90;43.20;;;;;;6229413;28;20088;-77
2021/06/12 13:05:12;;;;;;;3.03;1.10;;;32.10;42.20;;;;;;6228385;28;20073;-78
2021/06/12 13:08:19;;;;;;;0.65;0.65;;;32.30;42.20;;;;;;6227929;28;20069;-78
2021/06/12 13:11:20;;;;;;;4.85;0.50;;;32.10;42.00;;;;;;6228288;28;20049;-78
2021/06/12 13:14:25;;;;;;;1.05;0.52;;;32.10;42.40;;;;;;6227784;28;20101;-78
2021/06/12 13:17:28;;;;;;;2.35;0.63;;;32.10;41.90;;;;;;6227942;28;20077;-77
2021/06/12 13:20:30;;;;;;;4.10;0.70;;;32.30;42.30;;;;;;6226364;28;20078;-78
2021/06/12 13:23:31;;;;;;;1.17;0.57;;;32.40;40.80;;;;;;6226731;28;20069;-77
2021/06/12 13:26:40;;;;;;;3.75;0.68;;;32.30;41.30;;;;;;6226754;28;20217;-78
2021/06/12 13:29:43;;;;;;;6.43;1.13;;;32.20;42.30;;;;;;6228247;28;20439;-78
2021/06/12 13:32:57;;;;;;;0.45;0.45;;;32.40;41.00;;;;;;6228498;28;20587;-77
2021/06/12 13:36:01;;;;;;;2.88;0.40;;;32.40;41.40;;;;;;6227501;28;20069;-78
2021/06/12 13:39:03;;;;;;;0.82;0.50;;;32.40;41.00;;;;;;6227344;28;20049;-78
2021/06/12 13:42:13;;;;;;;5.13;0.47;;;32.30;41.90;;;;;;6222385;28;20416;-77
2021/06/12 13:45:16;;;;;;;0.55;0.50;;;32.40;41.00;;;;;;6204459;28;20054;-77
2021/06/12 13:48:18;;;;;;;1.90;0.85;;;32.40;41.40;;;;;;6201627;28;20483;-77
2021/06/12 13:51:20;;;;;;;0.90;0.70;;;32.50;40.10;;;;;;6201515;28;20101;-78
2021/06/12 13:54:23;;;;;;;2.60;0.73;;;32.50;39.70;;;;;;6201624;28;20137;-77
2021/06/12 13:57:24;;;;;;;1.98;0.40;;;32.40;40.60;;;;;;6200241;28;20082;-78
2021/06/12 14:00:27;;;;;;;0.73;0.73;;;32.50;40.00;;;;;;6202551;28;20615;-77
2021/06/12 14:03:29;;;;;;;1.17;0.40;;;32.50;40.30;;;;;;6200409;28;20062;-77
2021/06/12 14:06:30;;;;;;;0.65;0.40;;;32.50;39.30;;;;;;6202494;28;20140;-78
2021/06/12 14:09:31;;;;;;;1.00;0.35;;;32.50;40.00;;;;;;6201777;28;20133;-78
2021/06/12 14:12:33;;;;;;;0.40;0.40;;;32.50;40.80;;;;;;6200529;28;20080;-78
2021/06/12 14:15:37;;;;;;;3.05;0.45;;;32.60;40.00;;;;;;6199627;28;20046;-77
2021/06/12 14:18:38;;;;;;;0.60;0.30;;;32.40;40.90;;;;;;6200236;28;20051;-78
2021/06/12 14:21:39;;;;;;;1.00;0.38;;;32.20;40.90;;;;;;6200106;28;20137;-76
2021/06/12 14:24:42;;;;;;;0.30;0.30;;;32.10;41.50;;;;;;6199506;28;20132;-77
2021/06/12 14:27:43;;;;;;;0.68;0.40;;;32.10;41.20;;;;;;6199773;28;20050;-78
2021/06/12 14:30:46;;;;;;;2.92;0.50;;;32.10;41.70;;;;;;6199980;28;20085;-77
2021/06/12 14:33:47;;;;;;;0.95;0.68;;;32.20;40.90;;;;;;6200446;28;20082;-77
2021/06/12 14:36:48;;;;;;;2.47;0.70;;;32.30;41.90;;;;;;6199686;28;20574;-77
2021/06/12 14:39:50;;;;;;;2.60;0.85;;;32.10;40.40;;;;;;6199695;28;20073;-77
2021/06/12 14:42:53;;;;;;;0.40;0.40;;;31.80;40.70;;;;;;6202208;28;20496;-77
2021/06/12 14:45:55;;;;;;;0.52;0.52;;;31.60;41.10;;;;;;6214978;28;20121;-79
2021/06/12 14:48:57;;;;;;;7.50;0.70;;;31.60;40.90;;;;;;6226846;28;20148;-79
2021/06/12 14:51:58;;;;;;;1.95;0.40;;;31.50;41.50;;;;;;6226216;28;20562;-79
2021/06/12 14:54:59;;;;;;;0.77;0.63;;;31.40;42.10;;;;;;6225197;28;20500;-79
2021/06/12 14:58:01;;;;;;;2.13;0.50;;;31.40;42.40;;;;;;6226949;28;20148;-79
2021/06/12 15:01:03;;;;;;;0.30;0.30;;;31.20;42.00;;;;;;6225912;28;20042;-77
2021/06/12 15:04:05;;;;;;;0.40;0.40;;;31.10;42.60;;;;;;6225945;28;20046;-79
2021/06/12 15:07:06;;;;;;;0.93;0.40;;;31.00;42.70;;;;;;6225767;28;20069;-78
2021/06/12 15:10:10;;;;;;;3.45;1.48;;;30.80;43.10;;;;;;6226689;28;20133;-78
2021/06/12 15:13:11;;;;;;;0.85;0.85;;;30.70;43.30;;;;;;6226481;28;20052;-77
2021/06/12 15:16:14;;;;;;;0.68;0.50;;;30.70;43.50;;;;;;6230656;28;20050;-78
2021/06/12 15:19:15;;;;;;;4.07;2.63;;;30.80;43.60;;;;;;6230561;28;20042;-78
2021/06/12 15:22:16;;;;;;;2.65;0.80;;;30.90;43.20;;;;;;6232470;28;20046;-79
2021/06/12 15:25:18;;;;;;;1.02;0.77;;;30.90;43.00;;;;;;6230554;28;20458;-79
2021/06/12 15:28:22;;;;;;;0.98;0.70;;;30.80;43.40;;;;;;6231633;28;20046;-79
2021/06/12 15:31:25;;;;;;;0.93;0.68;;;30.90;44.20;;;;;;6227612;28;20042;-79
2021/06/12 15:34:27;;;;;;;0.93;0.80;;;31.00;42.80;;;;;;6227533;28;20076;-79
2021/06/12 15:37:28;;;;;;;0.65;0.57;;;30.80;41.90;;;;;;6227894;28;20626;-79
2021/06/12 15:40:30;;;;;;;1.15;1.00;;;30.60;42.40;;;;;;6227801;28;20132;-79
2021/06/12 15:43:32;;;;;;;2.08;1.58;;;30.40;42.70;;;;;;6227728;28;20048;-79
2021/06/12 15:46:35;;;;;;;4.65;1.40;;;30.30;42.20;;;;;;6213808;28;20069;-79
2021/06/12 15:49:36;;;;;;;2.72;0.85;;;30.10;41.80;;;;;;6227506;28;20056;-78